createdAt,value
2022-12-01T00:01:50.335Z,101203.00
2022-12-01T00:04:19.065Z,101202.00
2022-12-01T00:06:49.071Z,101215.00
2022-12-01T00:09:35.019Z,101213.00
2022-12-01T00:12:03.641Z,101205.00
2022-12-01T00:14:32.242Z,101193.00
2022-12-01T00:17:00.900Z,101207.00
2022-12-01T00:19:30.012Z,101198.00
2022-12-01T00:22:00.076Z,101208.00
2022-12-01T00:24:28.697Z,101205.00
2022-12-01T00:26:57.692Z,101204.00
2022-12-01T00:29:26.420Z,101209.00
2022-12-01T00:31:55.064Z,101208.00
2022-12-01T00:34:25.355Z,101204.00
2022-12-01T00:36:54.069Z,101199.00
2022-12-01T00:39:24.122Z,101203.00
2022-12-01T00:41:52.768Z,101203.00
2022-12-01T00:44:21.404Z,101195.00
2022-12-01T00:46:50.039Z,101202.00
2022-12-01T00:49:18.747Z,101203.00
2022-12-01T00:51:47.419Z,101219.00
2022-12-01T00:54:16.044Z,101214.00
2022-12-01T00:56:46.172Z,101211.00
2022-12-01T00:59:14.883Z,101218.00
2022-12-01T01:01:43.548Z,101206.00
2022-12-01T01:04:12.152Z,101203.00
2022-12-01T01:06:43.281Z,101213.00
2022-12-01T01:09:11.969Z,101205.00
2022-12-01T01:11:40.654Z,101218.00
2022-12-01T01:14:10.881Z,101213.00
2022-12-01T01:16:39.576Z,101215.00
2022-12-01T01:19:08.451Z,101219.00
2022-12-01T01:21:37.147Z,101214.00
2022-12-01T01:24:06.465Z,101221.00
2022-12-01T01:26:36.699Z,101222.00
2022-12-01T01:29:08.041Z,101212.00
2022-12-01T01:31:38.206Z,101218.00
2022-12-01T01:34:07.009Z,101222.00
2022-12-01T01:36:35.658Z,101225.00
2022-12-01T01:39:05.876Z,101210.00
2022-12-01T01:41:34.529Z,101212.00
2022-12-01T01:44:03.977Z,101218.00
2022-12-01T01:46:34.348Z,101220.00
2022-12-01T01:49:07.954Z,101214.00
2022-12-01T01:51:41.812Z,101224.00
2022-12-01T01:54:15.694Z,101224.00
2022-12-01T01:56:45.225Z,101228.00
2022-12-01T01:59:18.236Z,101217.00
2022-12-01T02:01:48.444Z,101225.00
2022-12-01T02:04:18.863Z,101229.00
2022-12-01T02:06:47.533Z,101226.00
2022-12-01T02:09:16.819Z,101231.00
2022-12-01T02:12:04.605Z,101226.00
2022-12-01T02:14:54.946Z,101210.00
2022-12-01T02:17:35.310Z,101219.00
2022-12-01T02:20:33.447Z,101219.00
2022-12-01T02:23:20.962Z,101217.00
2022-12-01T02:25:58.833Z,101217.00
2022-12-01T02:28:53.427Z,101210.00
2022-12-01T02:31:29.138Z,101226.00
2022-12-01T02:34:03.922Z,101217.00
2022-12-01T02:36:37.189Z,101225.00
2022-12-01T02:39:09.283Z,101223.00
2022-12-01T02:41:42.573Z,101225.00
2022-12-01T02:44:16.713Z,101227.00
2022-12-01T02:46:52.136Z,101223.00
2022-12-01T02:49:24.233Z,101231.00
2022-12-01T02:51:53.587Z,101233.00
2022-12-01T02:54:23.495Z,101228.00
2022-12-01T02:56:54.172Z,101239.00
2022-12-01T02:59:22.797Z,101235.00
2022-12-01T03:02:04.653Z,101231.00
2022-12-01T03:04:54.183Z,101220.00
2022-12-01T03:07:40.759Z,101220.00
2022-12-01T03:10:18.420Z,101221.00
2022-12-01T03:13:00.438Z,101224.00
2022-12-01T03:15:36.950Z,101228.00
2022-12-01T03:18:15.159Z,101223.00
2022-12-01T03:20:48.388Z,101221.00
2022-12-01T03:23:22.103Z,101219.00
2022-12-01T03:25:53.118Z,101217.00
2022-12-01T03:28:28.765Z,101215.00
2022-12-01T03:31:00.924Z,101208.00
2022-12-01T03:33:36.033Z,101221.00
2022-12-01T03:36:10.108Z,101215.00
2022-12-01T03:38:40.511Z,101215.00
2022-12-01T03:41:12.897Z,101216.00
2022-12-01T03:43:48.031Z,101218.00
2022-12-01T03:46:24.201Z,101228.00
2022-12-01T03:48:54.418Z,101214.00
2022-12-01T03:51:29.930Z,101222.00
2022-12-01T03:54:03.996Z,101226.00
2022-12-01T03:56:38.074Z,101216.00
2022-12-01T03:59:08.929Z,101224.00
2022-12-01T04:01:37.923Z,101222.00
2022-12-01T04:04:11.652Z,101236.00
2022-12-01T04:06:41.988Z,101231.00
2022-12-01T04:09:10.665Z,101230.00
2022-12-01T04:11:56.869Z,101231.00
2022-12-01T04:14:25.586Z,101232.00
2022-12-01T04:16:54.167Z,101224.00
2022-12-01T04:19:24.166Z,101237.00
2022-12-01T04:21:52.750Z,101241.00
2022-12-01T04:24:21.414Z,101234.00
2022-12-01T04:26:50.027Z,101240.00
2022-12-01T04:29:18.664Z,101231.00
2022-12-01T04:31:47.266Z,101230.00
2022-12-01T04:34:15.874Z,101228.00
2022-12-01T04:36:45.851Z,101235.00
2022-12-01T04:39:14.560Z,101236.00
2022-12-01T04:41:43.246Z,101227.00
2022-12-01T04:44:12.200Z,101224.00
2022-12-01T04:46:41.168Z,101227.00
2022-12-01T04:49:10.360Z,101232.00
2022-12-01T04:51:39.080Z,101225.00
2022-12-01T04:54:09.150Z,101249.00
2022-12-01T04:56:37.788Z,101247.00
2022-12-01T04:59:06.465Z,101241.00
2022-12-01T05:01:35.298Z,101249.00
2022-12-01T05:04:04.240Z,101239.00
2022-12-01T05:06:33.135Z,101246.00
2022-12-01T05:09:03.265Z,101234.00
2022-12-01T05:11:34.369Z,101247.00
2022-12-01T05:14:03.276Z,101248.00
2022-12-01T05:16:33.530Z,101242.00
2022-12-01T05:19:21.221Z,101246.00
2022-12-01T05:21:51.422Z,101253.00
2022-12-01T05:24:21.697Z,101252.00
2022-12-01T05:26:51.720Z,101235.00
2022-12-01T05:29:20.438Z,101259.00
2022-12-01T05:31:49.148Z,101255.00
2022-12-01T05:34:17.864Z,101243.00
2022-12-01T05:36:46.510Z,101243.00
2022-12-01T05:39:15.305Z,101244.00
2022-12-01T05:41:43.921Z,101249.00
2022-12-01T05:44:13.952Z,101255.00
2022-12-01T05:46:42.571Z,101255.00
2022-12-01T05:49:11.353Z,101245.00
2022-12-01T05:51:39.981Z,101254.00
2022-12-01T05:54:08.599Z,101258.00
2022-12-01T05:56:37.272Z,101259.00
2022-12-01T05:59:05.919Z,101256.00
2022-12-01T06:01:35.951Z,101252.00
2022-12-01T06:04:04.853Z,101261.00
2022-12-01T06:06:33.501Z,101247.00
2022-12-01T06:09:02.125Z,101262.00
2022-12-01T06:11:30.724Z,101254.00
2022-12-01T06:13:59.369Z,101256.00
2022-12-01T06:16:28.015Z,101261.00
2022-12-01T06:18:58.081Z,101260.00
2022-12-01T06:21:26.743Z,101266.00
2022-12-01T06:23:55.373Z,101268.00
2022-12-01T06:26:23.972Z,101272.00
2022-12-01T06:28:52.541Z,101274.00
2022-12-01T06:31:21.215Z,101280.00
2022-12-01T06:33:49.898Z,101272.00
2022-12-01T06:36:20.695Z,101278.00
2022-12-01T06:38:49.258Z,101282.00
2022-12-01T06:41:17.885Z,101278.00
2022-12-01T06:43:46.623Z,101282.00
2022-12-01T06:46:16.460Z,101283.00
2022-12-01T06:48:45.106Z,101286.00
2022-12-01T06:51:13.872Z,101280.00
2022-12-01T06:53:43.891Z,101290.00
2022-12-01T06:56:12.690Z,101295.00
2022-12-01T06:58:41.518Z,101291.00
2022-12-01T07:01:11.585Z,101290.00
2022-12-01T07:03:40.449Z,101296.00
2022-12-01T07:06:09.099Z,101302.00
2022-12-01T07:08:37.751Z,101299.00
2022-12-01T07:11:09.282Z,101299.00
2022-12-01T07:13:38.006Z,101297.00
2022-12-01T07:16:08.193Z,101300.00
2022-12-01T07:18:38.615Z,101304.00
2022-12-01T07:21:08.997Z,101309.00
2022-12-01T07:23:37.642Z,101293.00
2022-12-01T07:26:09.410Z,101306.00
2022-12-01T07:28:38.295Z,101306.00
2022-12-01T07:31:08.157Z,101305.00
2022-12-01T07:33:37.099Z,101306.00
2022-12-01T07:36:06.304Z,101307.00
2022-12-01T07:38:36.313Z,101313.00
2022-12-01T07:41:07.840Z,101307.00
2022-12-01T07:43:37.114Z,101309.00
2022-12-01T07:46:08.552Z,101310.00
2022-12-01T07:48:37.824Z,101304.00
2022-12-01T07:51:07.025Z,101316.00
2022-12-01T07:53:35.654Z,101322.00
2022-12-01T07:56:08.643Z,101314.00
2022-12-01T07:58:39.405Z,101316.00
2022-12-01T08:01:11.688Z,101326.00
2022-12-01T08:03:40.822Z,101331.00
2022-12-01T08:06:10.405Z,101324.00
2022-12-01T08:08:41.262Z,101313.00
2022-12-01T08:11:12.890Z,101310.00
2022-12-01T08:13:43.733Z,101321.00
2022-12-01T08:16:13.959Z,101316.00
2022-12-01T08:18:44.010Z,101324.00
2022-12-01T08:21:14.651Z,101322.00
2022-12-01T08:23:43.688Z,101316.00
2022-12-01T08:26:14.807Z,101313.00
2022-12-01T08:28:45.657Z,101322.00
2022-12-01T08:31:17.076Z,101321.00
2022-12-01T08:33:45.883Z,101319.00
2022-12-01T08:36:14.490Z,101323.00
2022-12-01T08:38:45.874Z,101325.00
2022-12-01T08:41:15.676Z,101321.00
2022-12-01T08:44:08.883Z,101316.00
2022-12-01T08:46:36.385Z,101319.00
2022-12-01T08:49:06.139Z,101316.00
2022-12-01T08:51:35.893Z,101325.00
2022-12-01T08:54:04.568Z,101313.00
2022-12-01T08:56:35.304Z,101324.00
2022-12-01T08:59:05.888Z,101321.00
2022-12-01T09:01:34.819Z,101328.00
2022-12-01T09:04:08.498Z,101332.00
2022-12-01T09:06:42.106Z,101322.00
2022-12-01T09:09:12.170Z,101333.00
2022-12-01T09:11:41.137Z,101333.00
2022-12-01T09:14:11.416Z,101332.00
2022-12-01T09:16:40.444Z,101338.00
2022-12-01T09:19:09.115Z,101336.00
2022-12-01T09:21:38.449Z,101332.00
2022-12-01T09:24:08.340Z,101339.00
2022-12-01T09:26:36.958Z,101342.00
2022-12-01T09:29:09.922Z,101342.00
2022-12-01T09:31:40.414Z,101340.00
2022-12-01T09:34:12.904Z,101337.00
2022-12-01T09:36:41.705Z,101344.00
2022-12-01T09:39:12.799Z,101335.00
2022-12-01T09:41:45.155Z,101337.00
2022-12-01T09:44:20.736Z,101321.00
2022-12-01T09:46:54.019Z,101321.00
2022-12-01T09:49:26.939Z,101315.00
2022-12-01T09:51:56.622Z,101316.00
2022-12-01T09:54:25.286Z,101317.00
2022-12-01T09:56:55.781Z,101315.00
2022-12-01T09:59:27.717Z,101318.00
2022-12-01T10:02:03.487Z,101308.00
2022-12-01T10:04:38.012Z,101316.00
2022-12-01T10:07:15.054Z,101308.00
2022-12-01T10:09:51.835Z,101312.00
2022-12-01T10:12:24.332Z,101306.00
2022-12-01T10:14:53.300Z,101301.00
2022-12-01T10:17:35.779Z,101306.00
2022-12-01T10:20:11.708Z,101299.00
2022-12-01T10:23:02.604Z,101297.00
2022-12-01T10:25:38.591Z,101300.00
2022-12-01T10:28:26.023Z,101293.00
2022-12-01T10:30:57.399Z,101293.00
2022-12-01T10:33:32.084Z,101297.00
2022-12-01T10:36:00.900Z,101295.00
2022-12-01T10:38:33.545Z,101291.00
2022-12-01T10:41:04.476Z,101290.00
2022-12-01T10:43:39.138Z,101287.00
2022-12-01T10:46:20.493Z,101281.00
2022-12-01T10:48:56.761Z,101297.00
2022-12-01T10:51:26.416Z,101282.00
2022-12-01T10:54:00.478Z,101285.00
2022-12-01T10:56:29.438Z,101295.00
2022-12-01T10:59:03.282Z,101282.00
2022-12-01T11:01:35.861Z,101294.00
2022-12-01T11:04:09.025Z,101306.00
2022-12-01T11:06:38.611Z,101298.00
2022-12-01T11:09:24.370Z,101294.00
2022-12-01T11:11:58.537Z,101303.00
2022-12-01T11:14:35.907Z,101290.00
2022-12-01T11:17:18.502Z,101295.00
2022-12-01T11:19:48.768Z,101288.00
2022-12-01T11:22:29.146Z,101281.00
2022-12-01T11:25:03.412Z,101280.00
2022-12-01T11:27:36.116Z,101279.00
2022-12-01T11:30:08.127Z,101276.00
2022-12-01T11:32:39.287Z,101272.00
2022-12-01T11:35:20.644Z,101265.00
2022-12-01T11:38:27.267Z,101266.00
2022-12-01T11:40:48.089Z,101265.00
2022-12-01T11:43:25.199Z,101260.00
2022-12-01T11:45:55.301Z,101279.00
2022-12-01T11:48:28.145Z,101267.00
2022-12-01T11:51:10.124Z,101265.00
2022-12-01T11:53:40.483Z,101272.00
2022-12-01T11:56:18.820Z,101279.00
2022-12-01T11:58:49.793Z,101271.00
2022-12-01T12:01:28.180Z,101270.00
2022-12-01T12:04:19.458Z,101264.00
2022-12-01T12:06:58.152Z,101267.00
2022-12-01T12:09:47.949Z,101271.00
2022-12-01T12:12:28.665Z,101259.00
2022-12-01T12:15:06.191Z,101270.00
2022-12-01T12:17:53.700Z,101277.00
2022-12-01T12:20:40.995Z,101262.00
2022-12-01T12:23:38.914Z,101253.00
2022-12-01T12:26:13.722Z,101247.00
2022-12-01T12:29:13.476Z,101248.00
2022-12-01T12:31:54.945Z,101244.00
2022-12-01T12:34:41.334Z,101244.00
2022-12-01T12:37:21.132Z,101244.00
2022-12-01T12:40:10.130Z,101241.00
2022-12-01T12:42:47.003Z,101245.00
2022-12-01T12:45:23.720Z,101245.00
2022-12-01T12:48:07.327Z,101245.00
2022-12-01T12:50:43.691Z,101247.00
2022-12-01T12:53:19.279Z,101246.00
2022-12-01T12:55:52.204Z,101249.00
2022-12-01T12:58:27.283Z,101243.00
2022-12-01T13:01:01.342Z,101244.00
2022-12-01T13:03:40.218Z,101241.00
2022-12-01T13:06:12.773Z,101244.00
2022-12-01T13:08:46.390Z,101246.00
2022-12-01T13:11:22.827Z,101241.00
2022-12-01T13:13:58.903Z,101251.00
2022-12-01T13:16:32.788Z,101246.00
2022-12-01T13:19:05.882Z,101249.00
2022-12-01T13:21:40.446Z,101249.00
2022-12-01T13:24:12.023Z,101238.00
2022-12-01T13:26:45.020Z,101243.00
2022-12-01T13:29:20.439Z,101235.00
2022-12-01T13:31:51.107Z,101235.00
2022-12-01T13:34:26.866Z,101239.00
2022-12-01T13:36:57.311Z,101235.00
2022-12-01T13:39:28.549Z,101248.00
2022-12-01T13:42:05.020Z,101241.00
2022-12-01T13:44:39.793Z,101244.00
2022-12-01T13:47:39.900Z,101238.00
2022-12-01T13:51:02.445Z,101246.00
2022-12-01T13:53:36.239Z,101249.00
2022-12-01T13:56:41.173Z,101248.00
2022-12-01T14:00:03.234Z,101248.00
2022-12-01T14:02:34.736Z,101245.00
2022-12-01T14:05:36.807Z,101254.00
2022-12-01T14:08:22.678Z,101249.00
2022-12-01T14:10:58.392Z,101241.00
2022-12-01T14:13:28.224Z,101245.00
2022-12-01T14:15:59.083Z,101243.00
2022-12-01T14:18:37.816Z,101241.00
2022-12-01T14:21:09.480Z,101242.00
2022-12-01T14:23:41.285Z,101232.00
2022-12-01T14:26:20.072Z,101235.00
2022-12-01T14:29:25.319Z,101233.00
2022-12-01T14:32:26.953Z,101229.00
2022-12-01T14:35:05.965Z,101225.00
2022-12-01T14:37:45.304Z,101234.00
2022-12-01T14:40:26.082Z,101232.00
2022-12-01T14:43:15.994Z,101220.00
2022-12-01T14:45:54.193Z,101229.00
2022-12-01T14:48:28.109Z,101223.00
2022-12-01T14:51:17.455Z,101228.00
2022-12-01T14:53:48.322Z,101232.00
2022-12-01T14:56:21.284Z,101231.00
2022-12-01T14:58:55.101Z,101228.00
2022-12-01T15:01:24.818Z,101230.00
2022-12-01T15:03:55.972Z,101226.00
2022-12-01T15:06:28.252Z,101222.00
2022-12-01T15:12:00.224Z,101225.00
2022-12-01T15:14:34.334Z,101218.00
2022-12-01T15:17:05.197Z,101220.00
2022-12-01T15:19:37.038Z,101226.00
2022-12-01T15:22:13.029Z,101227.00
2022-12-01T15:24:42.278Z,101223.00
2022-12-01T15:27:26.963Z,101228.00
2022-12-01T15:29:58.210Z,101224.00
2022-12-01T15:32:27.995Z,101218.00
2022-12-01T15:35:01.719Z,101222.00
2022-12-01T15:37:44.285Z,101225.00
2022-12-01T15:43:17.624Z,101227.00
2022-12-01T15:45:52.622Z,101224.00
2022-12-01T15:48:36.477Z,101228.00
2022-12-01T15:51:12.445Z,101226.00
2022-12-01T15:53:48.962Z,101237.00
2022-12-01T15:56:18.139Z,101228.00
2022-12-01T15:58:48.716Z,101223.00
2022-12-01T16:01:19.568Z,101225.00
2022-12-01T16:03:55.152Z,101231.00
2022-12-01T16:06:26.578Z,101218.00
2022-12-01T16:09:00.377Z,101225.00
2022-12-01T16:11:29.795Z,101221.00
2022-12-01T16:14:02.360Z,101224.00
2022-12-01T16:16:45.709Z,101222.00
2022-12-01T16:19:30.151Z,101225.00
2022-12-01T16:22:06.924Z,101223.00
2022-12-01T16:24:38.822Z,101220.00
2022-12-01T16:27:09.613Z,101218.00
2022-12-01T16:29:50.132Z,101230.00
2022-12-01T16:32:22.181Z,101229.00
2022-12-01T16:34:52.643Z,101234.00
2022-12-01T16:37:22.672Z,101230.00
2022-12-01T16:39:53.065Z,101223.00
2022-12-01T16:42:22.604Z,101229.00
2022-12-01T16:44:52.524Z,101223.00
2022-12-01T16:47:26.630Z,101222.00
2022-12-01T16:49:55.482Z,101219.00
2022-12-01T16:52:44.620Z,101219.00
2022-12-01T16:55:30.339Z,101228.00
2022-12-01T16:57:59.157Z,101223.00
2022-12-01T17:00:31.983Z,101225.00
2022-12-01T17:03:00.991Z,101222.00
2022-12-01T17:05:29.873Z,101224.00
2022-12-01T17:07:58.992Z,101228.00
2022-12-01T17:10:29.209Z,101233.00
2022-12-01T17:12:58.102Z,101228.00
2022-12-01T17:15:26.965Z,101231.00
2022-12-01T17:17:55.678Z,101225.00
2022-12-01T17:20:25.504Z,101241.00
2022-12-01T17:22:54.183Z,101240.00
2022-12-01T17:25:22.817Z,101236.00
2022-12-01T17:27:52.897Z,101225.00
2022-12-01T17:30:21.612Z,101232.00
2022-12-01T17:32:50.232Z,101236.00
2022-12-01T17:35:19.292Z,101236.00
2022-12-01T17:37:47.906Z,101241.00
2022-12-01T17:40:16.628Z,101236.00
2022-12-01T17:42:50.174Z,101231.00
2022-12-01T17:45:23.152Z,101232.00
2022-12-01T17:48:06.699Z,101232.00
2022-12-01T17:50:38.623Z,101232.00
2022-12-01T17:53:07.534Z,101236.00
2022-12-01T17:55:42.331Z,101248.00
2022-12-01T17:58:11.018Z,101250.00
2022-12-01T18:00:41.035Z,101232.00
2022-12-01T18:03:12.631Z,101244.00
2022-12-01T18:05:44.398Z,101241.00
2022-12-01T18:08:13.205Z,101238.00
2022-12-01T18:10:41.919Z,101235.00
2022-12-01T18:13:10.575Z,101239.00
2022-12-01T18:15:42.280Z,101240.00
2022-12-01T18:18:10.925Z,101232.00
2022-12-01T18:20:42.516Z,101241.00
2022-12-01T18:23:11.835Z,101237.00
2022-12-01T18:25:41.479Z,101235.00
2022-12-01T18:28:11.153Z,101237.00
2022-12-01T18:30:41.496Z,101234.00
2022-12-01T18:33:12.280Z,101236.00
2022-12-01T18:35:44.979Z,101238.00
2022-12-01T18:38:13.630Z,101239.00
2022-12-01T18:40:42.242Z,101243.00
2022-12-01T18:43:10.852Z,101233.00
2022-12-01T18:45:42.557Z,101230.00
2022-12-01T18:48:11.206Z,101239.00
2022-12-01T18:50:39.793Z,101232.00
2022-12-01T18:53:08.450Z,101225.00
2022-12-01T18:55:37.968Z,101228.00
2022-12-01T18:58:06.633Z,101223.00
2022-12-01T19:00:35.731Z,101221.00
2022-12-01T19:03:05.848Z,101222.00
2022-12-01T19:05:38.401Z,101222.00
2022-12-01T19:08:07.564Z,101219.00
2022-12-01T19:10:36.174Z,101217.00
2022-12-01T19:13:04.889Z,101224.00
2022-12-01T19:15:33.556Z,101220.00
2022-12-01T19:18:02.160Z,101225.00
2022-12-01T19:20:32.156Z,101219.00
2022-12-01T19:23:01.227Z,101215.00
2022-12-01T19:25:32.675Z,101225.00
2022-12-01T19:28:01.403Z,101216.00
2022-12-01T19:30:30.268Z,101219.00
2022-12-01T19:32:58.986Z,101214.00
2022-12-01T19:35:27.626Z,101217.00
2022-12-01T19:37:57.757Z,101211.00
2022-12-01T19:40:26.415Z,101211.00
2022-12-01T19:42:55.513Z,101215.00
2022-12-01T19:45:25.547Z,101203.00
2022-12-01T19:47:54.169Z,101215.00
2022-12-01T19:50:22.775Z,101221.00
2022-12-01T19:52:51.379Z,101210.00
2022-12-01T19:55:21.377Z,101217.00
2022-12-01T19:57:52.087Z,101203.00
2022-12-01T20:00:22.009Z,101204.00
2022-12-01T20:02:50.880Z,101204.00
2022-12-01T20:05:19.669Z,101199.00
2022-12-01T20:07:48.696Z,101199.00
2022-12-01T20:10:20.099Z,101207.00
2022-12-01T20:12:50.304Z,101195.00
2022-12-01T20:15:19.211Z,101207.00
2022-12-01T20:17:50.150Z,101208.00
2022-12-01T20:20:18.816Z,101211.00
2022-12-01T20:22:47.460Z,101206.00
2022-12-01T20:25:16.695Z,101201.00
2022-12-01T20:27:45.526Z,101198.00
2022-12-01T20:30:18.901Z,101203.00
2022-12-01T20:32:47.548Z,101208.00
2022-12-01T20:35:16.144Z,101203.00
2022-12-01T20:37:44.852Z,101196.00
2022-12-01T20:40:16.294Z,101194.00
2022-12-01T20:42:44.942Z,101189.00
2022-12-01T20:45:13.553Z,101197.00
2022-12-01T20:47:46.275Z,101200.00
2022-12-01T20:50:14.891Z,101196.00
2022-12-01T20:52:43.456Z,101195.00
2022-12-01T20:55:12.150Z,101194.00
2022-12-01T20:58:12.801Z,101190.00
2022-12-01T21:00:44.269Z,101189.00
2022-12-01T21:03:14.805Z,101187.00
2022-12-01T21:05:44.592Z,101183.00
2022-12-01T21:08:16.400Z,101187.00
2022-12-01T21:10:46.787Z,101182.00
2022-12-01T21:13:42.130Z,101184.00
2022-12-01T21:16:20.201Z,101185.00
2022-12-01T21:18:55.271Z,101188.00
2022-12-01T21:21:27.577Z,101181.00
2022-12-01T21:24:11.016Z,101181.00
2022-12-01T21:26:42.112Z,101190.00
2022-12-01T21:29:19.556Z,101185.00
2022-12-01T21:31:50.070Z,101186.00
2022-12-01T21:34:22.239Z,101184.00
2022-12-01T21:36:52.310Z,101187.00
2022-12-01T21:39:23.296Z,101192.00
2022-12-01T21:41:54.128Z,101182.00
2022-12-01T21:44:24.900Z,101182.00
2022-12-01T21:46:57.133Z,101177.00
2022-12-01T21:49:35.751Z,101184.00
2022-12-01T21:52:08.110Z,101178.00
2022-12-01T21:54:37.009Z,101168.00
2022-12-01T21:57:24.885Z,101180.00
2022-12-01T21:59:55.097Z,101178.00
2022-12-01T22:02:37.778Z,101188.00
2022-12-01T22:05:26.786Z,101183.00
2022-12-01T22:08:00.229Z,101181.00
2022-12-01T22:10:52.295Z,101177.00
2022-12-01T22:13:23.476Z,101172.00
2022-12-01T22:15:53.563Z,101164.00
2022-12-01T22:18:25.376Z,101168.00
2022-12-01T22:20:55.487Z,101162.00
2022-12-01T22:23:26.810Z,101164.00
2022-12-01T22:25:55.417Z,101164.00
2022-12-01T22:28:25.699Z,101170.00
2022-12-01T22:30:55.907Z,101162.00
2022-12-01T22:33:25.792Z,101163.00
2022-12-01T22:35:55.786Z,101157.00
2022-12-01T22:38:36.462Z,101156.00
2022-12-01T22:41:07.613Z,101170.00
2022-12-01T22:43:50.715Z,101164.00
2022-12-01T22:46:27.831Z,101165.00
2022-12-01T22:48:58.590Z,101159.00
2022-12-01T22:51:37.767Z,101153.00
2022-12-01T22:54:29.258Z,101152.00
2022-12-01T22:57:29.293Z,101157.00
2022-12-01T22:59:57.999Z,101156.00
2022-12-01T23:02:32.649Z,101146.00
2022-12-01T23:05:14.864Z,101148.00
2022-12-01T23:07:45.909Z,101145.00
2022-12-01T23:10:18.643Z,101147.00
2022-12-01T23:12:48.954Z,101147.00
2022-12-01T23:15:32.819Z,101131.00
2022-12-01T23:18:09.719Z,101130.00
2022-12-01T23:20:38.525Z,101140.00
2022-12-01T23:23:15.126Z,101131.00
2022-12-01T23:25:47.428Z,101142.00
2022-12-01T23:28:16.365Z,101138.00
2022-12-01T23:30:47.258Z,101134.00
2022-12-01T23:33:22.335Z,101124.00
2022-12-01T23:35:55.771Z,101114.00
2022-12-01T23:38:30.066Z,101118.00
2022-12-01T23:41:02.286Z,101119.00
2022-12-01T23:43:34.155Z,101111.00
2022-12-01T23:46:06.176Z,101122.00
2022-12-01T23:48:38.426Z,101122.00
2022-12-01T23:51:12.592Z,101120.00
2022-12-01T23:53:42.896Z,101117.00
2022-12-01T23:56:15.548Z,101109.00
2022-12-01T23:58:45.557Z,101111.00
